createdAt,value
2019-04-27T00:01:17.522Z,93.00
2019-04-27T00:04:11.674Z,93.50
2019-04-27T00:06:43.070Z,93.60
2019-04-27T00:09:43.172Z,93.90
2019-04-27T00:12:09.691Z,93.70
2019-04-27T00:14:37.772Z,94.10
2019-04-27T00:17:48.533Z,94.90
2019-04-27T00:20:29.606Z,94.50
2019-04-27T00:23:03.283Z,93.70
2019-04-27T00:25:32.813Z,93.00
2019-04-27T00:28:00.786Z,92.70
2019-04-27T00:30:28.743Z,92.50
2019-04-27T00:32:56.730Z,92.80
2019-04-27T00:35:34.174Z,93.00
2019-04-27T00:38:16.578Z,93.00
2019-04-27T00:40:49.619Z,94.00
2019-04-27T00:43:17.623Z,94.00
2019-04-27T00:45:45.726Z,94.30
2019-04-27T00:48:14.978Z,94.10
2019-04-27T00:50:43.880Z,93.90
2019-04-27T00:53:13.365Z,94.20
2019-04-27T00:56:00.003Z,94.70
2019-04-27T00:58:36.375Z,95.10
2019-04-27T01:01:12.690Z,95.00
2019-04-27T01:03:44.437Z,95.10
2019-04-27T01:06:13.063Z,95.40
2019-04-27T01:08:42.754Z,95.50
2019-04-27T01:11:12.045Z,95.70
2019-04-27T01:13:46.266Z,95.70
2019-04-27T01:16:17.434Z,95.50
2019-04-27T01:18:44.076Z,95.50
2019-04-27T01:21:13.074Z,95.80
2019-04-27T01:23:41.103Z,95.80
2019-04-27T01:26:28.651Z,95.60
2019-04-27T01:29:06.606Z,95.60
2019-04-27T01:31:34.608Z,95.90
2019-04-27T01:34:02.533Z,95.40
2019-04-27T01:36:30.445Z,95.20
2019-04-27T01:38:59.500Z,95.10
2019-04-27T01:41:29.074Z,94.80
2019-04-27T01:43:57.087Z,94.00
2019-04-27T01:46:25.462Z,94.20
2019-04-27T01:48:54.539Z,94.00
2019-04-27T01:51:22.471Z,94.20
2019-04-27T01:53:50.366Z,94.20
2019-04-27T01:56:19.474Z,94.40
2019-04-27T01:58:49.398Z,94.70
2019-04-27T02:01:38.993Z,95.10
2019-04-27T02:04:21.202Z,95.40
2019-04-27T02:06:50.694Z,95.60
2019-04-27T02:09:20.297Z,95.70
2019-04-27T02:11:48.976Z,95.80
2019-04-27T02:14:17.100Z,96.00
2019-04-27T02:16:44.959Z,96.10
2019-04-27T02:19:12.841Z,96.00
2019-04-27T02:21:40.713Z,96.50
2019-04-27T02:24:09.748Z,96.40
2019-04-27T02:26:39.881Z,96.40
2019-04-27T02:29:48.786Z,96.70
2019-04-27T02:32:40.014Z,96.60
2019-04-27T02:35:13.351Z,96.50
2019-04-27T02:37:41.199Z,96.80
2019-04-27T02:40:55.796Z,96.90
2019-04-27T02:43:30.504Z,96.90
2019-04-27T02:46:00.465Z,96.70
2019-04-27T02:48:32.578Z,96.70
2019-04-27T02:51:04.186Z,96.70
2019-04-27T02:53:50.274Z,96.70
2019-04-27T02:56:21.181Z,96.80
2019-04-27T02:58:49.690Z,97.10
2019-04-27T03:01:20.065Z,97.20
2019-04-27T03:03:50.003Z,97.30
2019-04-27T03:06:19.884Z,97.50
2019-04-27T03:08:52.841Z,97.70
2019-04-27T03:11:20.518Z,97.80
2019-04-27T03:14:20.483Z,97.90
2019-04-27T03:16:54.695Z,98.00
2019-04-27T03:19:44.977Z,98.10
2019-04-27T03:22:24.992Z,98.10
2019-04-27T03:25:32.037Z,98.20
2019-04-27T03:28:05.643Z,97.50
2019-04-27T03:30:36.093Z,97.60
2019-04-27T03:33:06.346Z,97.30
2019-04-27T03:35:36.754Z,97.20
2019-04-27T03:38:04.176Z,97.10
2019-04-27T03:40:32.424Z,97.00
2019-04-27T03:43:06.320Z,96.90
2019-04-27T03:45:34.182Z,96.80
2019-04-27T03:48:02.611Z,96.90
2019-04-27T03:50:42.958Z,97.00
2019-04-27T03:53:42.526Z,96.70
2019-04-27T03:56:35.993Z,96.60
2019-04-27T03:59:23.483Z,96.60
2019-04-27T04:01:54.256Z,96.80
2019-04-27T04:04:25.235Z,96.80
2019-04-27T04:06:53.206Z,97.00
2019-04-27T04:09:39.975Z,97.30
2019-04-27T04:12:12.373Z,97.40
2019-04-27T04:14:43.280Z,97.50
2019-04-27T04:17:14.062Z,97.70
2019-04-27T04:19:54.376Z,97.90
2019-04-27T04:22:13.936Z,98.00
2019-04-27T04:24:41.808Z,97.90
2019-04-27T04:27:10.042Z,97.80
2019-04-27T04:29:39.442Z,97.70
2019-04-27T04:32:08.153Z,97.50
2019-04-27T04:34:39.775Z,97.40
2019-04-27T04:37:09.283Z,97.30
2019-04-27T04:39:40.044Z,96.80
2019-04-27T04:42:19.568Z,96.30
2019-04-27T04:45:03.483Z,96.10
2019-04-27T04:47:40.745Z,95.80
2019-04-27T04:50:14.739Z,95.60
2019-04-27T04:52:42.467Z,95.50
2019-04-27T04:55:10.225Z,95.60
2019-04-27T04:57:39.980Z,95.40
2019-04-27T05:00:09.842Z,95.10
2019-04-27T05:02:39.621Z,95.20
2019-04-27T05:05:09.408Z,95.10
2019-04-27T05:07:38.756Z,94.90
2019-04-27T05:10:08.846Z,94.70
2019-04-27T05:12:38.575Z,94.30
2019-04-27T05:15:06.751Z,94.30
2019-04-27T05:17:34.902Z,94.00
2019-04-27T05:20:24.686Z,94.20
2019-04-27T05:22:50.867Z,93.80
2019-04-27T05:25:18.740Z,93.90
2019-04-27T05:27:49.264Z,93.70
2019-04-27T05:30:19.569Z,93.60
2019-04-27T05:32:49.454Z,93.50
2019-04-27T05:35:19.316Z,93.30
2019-04-27T05:37:49.210Z,93.40
2019-04-27T05:40:18.746Z,93.70
2019-04-27T05:42:50.542Z,93.50
2019-04-27T05:46:09.942Z,93.30
2019-04-27T05:48:38.988Z,93.00
2019-04-27T05:51:07.098Z,92.10
2019-04-27T05:53:35.125Z,91.90
2019-04-27T05:56:03.020Z,92.30
2019-04-27T05:58:30.930Z,92.10
2019-04-27T06:00:59.508Z,91.90
2019-04-27T06:03:29.673Z,91.50
2019-04-27T06:06:01.366Z,90.30
2019-04-27T06:08:29.135Z,90.10
2019-04-27T06:10:57.063Z,90.60
2019-04-27T06:13:25.043Z,90.50
2019-04-27T06:15:54.973Z,89.50
2019-04-27T06:18:24.023Z,89.00
2019-04-27T06:20:55.735Z,89.40
2019-04-27T06:23:21.831Z,87.60
2019-04-27T06:25:49.839Z,85.20
2019-04-27T06:28:19.066Z,86.70
2019-04-27T06:30:47.096Z,85.30
2019-04-27T06:33:27.240Z,85.30
2019-04-27T06:35:44.823Z,83.90
2019-04-27T06:38:12.778Z,84.00
2019-04-27T06:40:40.795Z,82.40
2019-04-27T06:43:08.793Z,80.30
2019-04-27T06:45:38.772Z,79.50
2019-04-27T06:48:06.873Z,79.60
2019-04-27T06:50:36.029Z,77.00
2019-04-27T06:53:03.943Z,77.10
2019-04-27T06:55:32.001Z,76.10
2019-04-27T06:57:59.956Z,77.80
2019-04-27T07:00:28.924Z,74.60
2019-04-27T07:03:03.087Z,75.30
2019-04-27T07:05:31.048Z,74.10
2019-04-27T07:07:59.213Z,72.40
2019-04-27T07:10:28.642Z,70.30
2019-04-27T07:12:56.810Z,72.30
2019-04-27T07:15:24.767Z,69.80
2019-04-27T07:17:52.679Z,68.30
2019-04-27T07:20:20.721Z,68.50
2019-04-27T07:22:49.682Z,68.90
2019-04-27T07:25:18.910Z,67.70
2019-04-27T07:27:46.976Z,68.20
2019-04-27T07:30:15.038Z,67.30
2019-04-27T07:32:42.940Z,65.60
2019-04-27T07:35:10.964Z,65.80
2019-04-27T07:37:39.360Z,65.40
2019-04-27T07:40:09.069Z,65.40
2019-04-27T07:42:41.358Z,66.10
2019-04-27T07:45:19.536Z,64.70
2019-04-27T07:47:49.326Z,65.20
2019-04-27T07:50:17.367Z,65.30
2019-04-27T07:52:45.265Z,66.90
2019-04-27T07:55:13.178Z,65.20
2019-04-27T07:57:41.166Z,63.50
2019-04-27T08:00:10.486Z,61.10
2019-04-27T08:02:39.106Z,62.00
2019-04-27T08:05:07.185Z,61.50
2019-04-27T08:07:35.138Z,62.60
2019-04-27T08:10:04.294Z,64.40
2019-04-27T08:12:32.186Z,65.60
2019-04-27T08:15:00.243Z,66.30
2019-04-27T08:17:28.756Z,66.60
2019-04-27T08:19:59.571Z,67.40
2019-04-27T08:22:29.101Z,68.30
2019-04-27T08:24:57.152Z,68.50
2019-04-27T08:27:34.871Z,69.60
2019-04-27T08:30:41.511Z,69.20
2019-04-27T08:33:09.863Z,69.80
2019-04-27T08:35:40.673Z,69.60
2019-04-27T08:38:09.117Z,69.90
2019-04-27T08:40:39.349Z,71.20
2019-04-27T08:43:10.098Z,71.00
2019-04-27T08:45:39.204Z,72.70
2019-04-27T08:48:09.136Z,74.30
2019-04-27T08:50:39.788Z,74.40
2019-04-27T08:53:07.149Z,74.00
2019-04-27T08:55:35.103Z,76.90
2019-04-27T08:58:03.031Z,75.80
2019-04-27T09:00:30.972Z,76.60
2019-04-27T09:02:59.563Z,76.90
2019-04-27T09:05:28.936Z,77.80
2019-04-27T09:08:23.640Z,79.30
2019-04-27T09:10:59.000Z,78.30
2019-04-27T09:13:33.817Z,78.40
2019-04-27T09:16:11.216Z,80.50
2019-04-27T09:18:40.961Z,82.20
2019-04-27T09:21:10.621Z,83.50
2019-04-27T09:23:39.027Z,86.00
2019-04-27T09:26:06.984Z,86.10
2019-04-27T09:28:35.071Z,88.40
2019-04-27T09:31:03.225Z,87.70
2019-04-27T09:33:31.236Z,87.70
2019-04-27T09:35:59.174Z,88.40
2019-04-27T09:38:29.686Z,87.50
2019-04-27T09:40:58.148Z,87.80
2019-04-27T09:43:27.346Z,84.90
2019-04-27T09:45:55.893Z,84.10
2019-04-27T09:48:25.973Z,83.30
2019-04-27T09:50:55.905Z,80.80
2019-04-27T09:53:24.196Z,82.50
2019-04-27T09:55:53.669Z,81.00
2019-04-27T09:58:21.674Z,81.60
2019-04-27T10:00:49.771Z,82.30
2019-04-27T10:03:17.801Z,81.90
2019-04-27T10:05:46.308Z,79.60
2019-04-27T10:08:14.259Z,78.80
2019-04-27T10:10:42.517Z,76.70
2019-04-27T10:13:10.671Z,77.70
2019-04-27T10:15:40.178Z,76.90
2019-04-27T10:18:29.807Z,74.40
2019-04-27T10:21:01.924Z,73.60
2019-04-27T10:23:27.679Z,74.10
2019-04-27T10:25:55.809Z,70.70
2019-04-27T10:28:23.816Z,70.60
2019-04-27T10:30:51.804Z,70.30
2019-04-27T10:33:20.518Z,70.00
2019-04-27T10:35:48.864Z,69.00
2019-04-27T10:38:17.385Z,66.90
2019-04-27T10:40:47.451Z,66.60
2019-04-27T10:43:18.263Z,63.50
2019-04-27T10:45:46.554Z,63.90
2019-04-27T10:48:17.752Z,63.30
2019-04-27T10:50:46.675Z,62.40
2019-04-27T10:53:16.488Z,64.20
2019-04-27T10:55:46.393Z,66.50
2019-04-27T10:58:14.562Z,69.70
2019-04-27T11:00:48.384Z,74.10
2019-04-27T11:03:19.487Z,74.30
2019-04-27T11:06:09.570Z,76.30
2019-04-27T11:08:37.528Z,75.50
2019-04-27T11:11:05.633Z,75.10
2019-04-27T11:13:36.211Z,75.80
2019-04-27T11:16:04.784Z,76.50
2019-04-27T11:18:33.129Z,73.70
2019-04-27T11:21:01.274Z,74.00
2019-04-27T11:23:29.387Z,73.60
2019-04-27T11:25:57.389Z,70.70
2019-04-27T11:28:25.956Z,69.60
2019-04-27T11:30:54.247Z,70.40
2019-04-27T11:33:22.461Z,73.10
2019-04-27T11:36:08.804Z,74.90
2019-04-27T11:38:36.773Z,75.00
2019-04-27T11:41:04.982Z,78.80
2019-04-27T11:43:33.054Z,80.50
2019-04-27T11:46:01.246Z,80.00
2019-04-27T11:48:29.237Z,80.70
2019-04-27T11:50:57.358Z,80.70
2019-04-27T11:53:26.226Z,76.70
2019-04-27T11:55:54.469Z,77.70
2019-04-27T11:58:22.713Z,74.50
2019-04-27T12:00:50.685Z,74.80
2019-04-27T12:03:18.711Z,75.90
2019-04-27T12:05:46.747Z,74.50
2019-04-27T12:08:16.201Z,76.10
2019-04-27T12:10:46.401Z,78.10
2019-04-27T12:13:15.943Z,80.00
2019-04-27T12:15:44.032Z,79.90
2019-04-27T12:18:12.105Z,79.30
2019-04-27T12:20:40.056Z,78.90
2019-04-27T12:23:08.036Z,77.00
2019-04-27T12:25:37.360Z,76.10
2019-04-27T12:28:26.982Z,75.90
2019-04-27T12:31:02.160Z,77.80
2019-04-27T12:33:30.243Z,74.40
2019-04-27T12:35:58.222Z,73.80
2019-04-27T12:38:28.301Z,72.20
2019-04-27T12:40:56.757Z,72.30
2019-04-27T12:43:24.831Z,75.00
2019-04-27T12:45:52.902Z,74.80
2019-04-27T12:48:20.895Z,74.10
2019-04-27T12:50:49.059Z,76.70
2019-04-27T12:53:49.935Z,75.80
2019-04-27T12:56:16.660Z,71.90
2019-04-27T12:59:10.158Z,72.60
2019-04-27T13:01:38.562Z,72.90
2019-04-27T13:04:06.919Z,70.00
2019-04-27T13:06:36.061Z,70.20
2019-04-27T13:09:07.115Z,67.40
2019-04-27T13:11:36.641Z,63.70
2019-04-27T13:14:06.205Z,65.10
2019-04-27T13:16:34.257Z,62.70
2019-04-27T13:19:02.356Z,61.50
2019-04-27T13:21:30.370Z,62.40
2019-04-27T13:24:04.136Z,63.60
2019-04-27T13:26:28.395Z,63.60
2019-04-27T13:28:58.197Z,61.50
2019-04-27T13:31:26.577Z,63.60
2019-04-27T13:33:55.919Z,65.20
2019-04-27T13:36:26.582Z,69.50
2019-04-27T13:38:56.135Z,73.80
2019-04-27T13:41:30.456Z,77.20
2019-04-27T13:43:55.742Z,74.30
2019-04-27T13:46:34.653Z,79.20
2019-04-27T13:49:32.841Z,78.30
2019-04-27T13:52:06.202Z,82.90
2019-04-27T13:54:34.227Z,84.90
2019-04-27T13:57:02.205Z,88.30
2019-04-27T13:59:31.795Z,89.90
2019-04-27T14:01:59.853Z,90.50
2019-04-27T14:04:27.777Z,89.10
2019-04-27T14:06:55.901Z,91.00
2019-04-27T14:09:23.883Z,91.70
2019-04-27T14:11:55.687Z,91.90
2019-04-27T14:14:23.647Z,91.80
2019-04-27T14:16:51.649Z,92.70
2019-04-27T14:19:19.753Z,92.20
2019-04-27T14:21:49.019Z,92.60
2019-04-27T14:24:27.450Z,92.90
2019-04-27T14:26:48.572Z,92.20
2019-04-27T14:29:16.743Z,92.30
2019-04-27T14:31:44.722Z,90.20
2019-04-27T14:34:12.762Z,90.10
2019-04-27T14:36:40.950Z,91.20
2019-04-27T14:39:11.784Z,88.80
2019-04-27T14:41:41.616Z,89.20
2019-04-27T14:44:10.718Z,90.30
2019-04-27T14:46:38.879Z,90.10
2019-04-27T14:49:08.111Z,91.20
2019-04-27T14:51:39.866Z,91.30
2019-04-27T14:54:06.684Z,91.00
2019-04-27T14:56:34.639Z,91.20
2019-04-27T14:59:02.725Z,88.50
2019-04-27T15:01:30.686Z,83.20
2019-04-27T15:03:58.743Z,84.10
2019-04-27T15:06:26.665Z,83.90
2019-04-27T15:08:55.771Z,83.40
2019-04-27T15:11:24.136Z,78.20
2019-04-27T15:13:54.938Z,73.40
2019-04-27T15:16:23.072Z,68.30
2019-04-27T15:18:55.822Z,65.60
2019-04-27T15:21:25.528Z,62.20
2019-04-27T15:23:53.710Z,58.40
2019-04-27T15:26:22.944Z,54.10
2019-04-27T15:28:53.159Z,51.50
2019-04-27T15:31:40.987Z,48.90
2019-04-27T15:34:29.127Z,47.60
2019-04-27T15:37:34.211Z,51.30
2019-04-27T15:40:30.941Z,52.70
2019-04-27T15:43:23.013Z,55.50
2019-04-27T15:45:53.499Z,55.70
2019-04-27T15:48:25.169Z,60.20
2019-04-27T15:50:51.974Z,64.40
2019-04-27T15:53:19.919Z,61.90
2019-04-27T15:55:49.660Z,62.90
2019-04-27T15:58:25.119Z,65.70
2019-04-27T16:00:56.212Z,65.80
2019-04-27T16:03:22.661Z,68.00
2019-04-27T16:05:50.904Z,70.00
2019-04-27T16:08:19.067Z,70.30
2019-04-27T16:10:48.621Z,70.30
2019-04-27T16:13:18.209Z,70.50
2019-04-27T16:15:48.107Z,74.00
2019-04-27T16:18:16.421Z,73.00
2019-04-27T16:20:44.502Z,75.90
2019-04-27T16:23:12.996Z,78.20
2019-04-27T16:25:48.659Z,78.10
2019-04-27T16:28:13.349Z,79.00
2019-04-27T16:30:45.644Z,80.60
2019-04-27T16:33:15.362Z,81.60
2019-04-27T16:35:42.043Z,82.10
2019-04-27T16:38:19.544Z,80.70
2019-04-27T16:40:47.634Z,82.30
2019-04-27T16:43:15.797Z,83.80
2019-04-27T16:45:43.960Z,85.30
2019-04-27T16:48:13.063Z,91.20
2019-04-27T16:50:41.270Z,93.40
2019-04-27T16:53:12.419Z,93.20
2019-04-27T16:55:39.349Z,92.80
2019-04-27T16:58:09.652Z,91.40
2019-04-27T17:00:38.765Z,92.10
2019-04-27T17:03:09.234Z,84.40
2019-04-27T17:05:37.991Z,86.20
2019-04-27T17:08:06.327Z,84.40
2019-04-27T17:10:38.503Z,83.40
2019-04-27T17:13:13.350Z,84.40
2019-04-27T17:15:58.959Z,84.80
2019-04-27T17:18:49.041Z,82.80
2019-04-27T17:21:22.549Z,85.60
2019-04-27T17:23:48.151Z,87.30
2019-04-27T17:26:21.715Z,87.00
2019-04-27T17:28:55.158Z,84.00
2019-04-27T17:31:25.499Z,80.60
2019-04-27T17:34:00.564Z,82.30
2019-04-27T17:36:29.262Z,82.70
2019-04-27T17:38:58.345Z,79.30
2019-04-27T17:41:28.231Z,80.00
2019-04-27T17:43:56.563Z,77.50
2019-04-27T17:46:24.516Z,82.30
2019-04-27T17:48:52.605Z,80.20
2019-04-27T17:51:20.710Z,81.80
2019-04-27T17:53:50.022Z,78.50
2019-04-27T17:56:18.597Z,80.30
2019-04-27T17:58:48.615Z,82.80
2019-04-27T18:01:20.240Z,82.50
2019-04-27T18:03:46.529Z,83.40
2019-04-27T18:06:14.718Z,85.00
2019-04-27T18:08:42.905Z,85.60
2019-04-27T18:11:10.993Z,86.00
2019-04-27T18:13:41.974Z,87.80
2019-04-27T18:16:09.344Z,89.00
2019-04-27T18:18:45.585Z,90.30
2019-04-27T18:21:14.550Z,90.00
2019-04-27T18:23:45.393Z,90.00
2019-04-27T18:26:46.069Z,90.10
2019-04-27T18:29:04.357Z,90.90
2019-04-27T18:31:32.541Z,90.80
2019-04-27T18:34:00.817Z,91.20
2019-04-27T18:36:29.520Z,91.20
2019-04-27T18:38:58.745Z,90.50
2019-04-27T18:41:28.682Z,91.20
2019-04-27T18:44:00.225Z,91.30
2019-04-27T18:46:28.292Z,91.30
2019-04-27T18:49:18.083Z,91.80
2019-04-27T18:52:06.570Z,92.00
2019-04-27T18:54:38.162Z,91.30
2019-04-27T18:57:05.153Z,91.40
2019-04-27T18:59:33.169Z,91.50
2019-04-27T19:02:01.402Z,92.00
2019-04-27T19:04:29.564Z,91.60
2019-04-27T19:06:58.520Z,92.20
2019-04-27T19:09:27.671Z,92.20
2019-04-27T19:11:56.861Z,92.40
2019-04-27T19:14:24.975Z,93.00
2019-04-27T19:16:52.969Z,92.20
2019-04-27T19:19:21.006Z,91.70
2019-04-27T19:21:49.065Z,92.00
2019-04-27T19:24:19.048Z,91.30
2019-04-27T19:26:53.481Z,91.30
2019-04-27T19:29:24.909Z,91.50
2019-04-27T19:31:55.250Z,91.90
2019-04-27T19:34:23.365Z,92.30
2019-04-27T19:36:51.389Z,92.10
2019-04-27T19:39:19.439Z,92.10
2019-04-27T19:42:00.038Z,92.60
2019-04-27T19:44:18.765Z,92.80
2019-04-27T19:46:49.069Z,93.20
2019-04-27T19:49:19.288Z,92.80
2019-04-27T19:51:47.431Z,93.10
2019-04-27T19:54:15.789Z,93.60
2019-04-27T19:56:43.840Z,93.40
2019-04-27T19:59:28.102Z,93.70
2019-04-27T20:01:58.727Z,93.80
2019-04-27T20:04:31.735Z,94.70
2019-04-27T20:06:59.827Z,94.60
2019-04-27T20:09:52.940Z,95.20
2019-04-27T20:12:21.385Z,95.70
2019-04-27T20:14:55.485Z,95.60
2019-04-27T20:17:25.653Z,95.60
2019-04-27T20:19:53.820Z,95.80
2019-04-27T20:22:24.393Z,94.90
2019-04-27T20:24:54.897Z,94.90
2019-04-27T20:27:22.960Z,94.50
2019-04-27T20:29:51.141Z,94.40
2019-04-27T20:32:19.270Z,94.40
2019-04-27T20:34:48.231Z,93.50
2019-04-27T20:37:16.346Z,94.00
2019-04-27T20:39:44.328Z,94.00
2019-04-27T20:42:12.714Z,93.70
2019-04-27T20:44:41.342Z,93.60
2019-04-27T20:47:10.259Z,92.20
2019-04-27T20:49:38.273Z,92.20
2019-04-27T20:52:12.389Z,92.20
2019-04-27T20:54:41.575Z,92.10
2019-04-27T20:57:11.529Z,90.70
2019-04-27T20:59:39.666Z,91.30
2019-04-27T21:02:26.187Z,92.00
2019-04-27T21:05:22.127Z,92.10
2019-04-27T21:07:53.221Z,92.40
2019-04-27T21:10:21.241Z,92.30
2019-04-27T21:12:49.220Z,92.10
2019-04-27T21:15:17.471Z,92.10
2019-04-27T21:17:46.546Z,92.10
2019-04-27T21:20:14.700Z,92.10
2019-04-27T21:22:42.706Z,91.90
2019-04-27T21:25:11.850Z,91.80
2019-04-27T21:27:41.065Z,91.20
2019-04-27T21:30:11.509Z,91.70
2019-04-27T21:32:39.631Z,91.30
2019-04-27T21:35:10.807Z,91.40
2019-04-27T21:37:40.772Z,91.30
2019-04-27T21:40:16.954Z,91.50
2019-04-27T21:42:45.259Z,91.40
2019-04-27T21:45:13.896Z,91.60
2019-04-27T21:47:43.306Z,91.70
2019-04-27T21:50:12.197Z,92.00
2019-04-27T21:52:45.995Z,92.10
2019-04-27T21:55:15.573Z,91.70
2019-04-27T21:57:43.644Z,92.10
2019-04-27T22:00:44.556Z,91.50
2019-04-27T22:03:15.364Z,91.50
2019-04-27T22:05:43.447Z,91.30
2019-04-27T22:08:11.913Z,89.90
2019-04-27T22:10:40.011Z,90.10
2019-04-27T22:13:07.934Z,90.10
2019-04-27T22:15:42.647Z,90.00
2019-04-27T22:18:11.181Z,89.00
2019-04-27T22:20:42.440Z,90.00
2019-04-27T22:23:19.057Z,90.10
2019-04-27T22:25:48.040Z,87.80
2019-04-27T22:28:17.039Z,87.40
2019-04-27T22:30:45.041Z,86.80
2019-04-27T22:33:13.250Z,88.40
2019-04-27T22:35:41.544Z,86.10
2019-04-27T22:38:09.561Z,87.00
2019-04-27T22:40:54.558Z,86.20
2019-04-27T22:43:41.368Z,85.40
2019-04-27T22:46:12.432Z,84.70
2019-04-27T22:48:41.660Z,83.40
2019-04-27T22:51:11.592Z,83.90
2019-04-27T22:53:41.080Z,82.90
2019-04-27T22:56:13.756Z,83.20
2019-04-27T22:58:57.015Z,83.90
2019-04-27T23:01:37.157Z,84.20
2019-04-27T23:04:06.911Z,84.10
2019-04-27T23:06:35.041Z,85.20
2019-04-27T23:09:04.404Z,87.20
2019-04-27T23:11:34.363Z,86.40
2019-04-27T23:14:02.521Z,86.00
2019-04-27T23:16:32.438Z,86.90
2019-04-27T23:19:01.813Z,86.00
2019-04-27T23:21:31.273Z,85.40
2019-04-27T23:24:02.135Z,85.70
2019-04-27T23:26:31.216Z,86.00
2019-04-27T23:29:11.022Z,86.00
2019-04-27T23:31:38.546Z,85.30
2019-04-27T23:34:25.994Z,85.90
2019-04-27T23:36:53.935Z,85.90
2019-04-27T23:39:22.951Z,85.90
2019-04-27T23:41:50.876Z,85.90
2019-04-27T23:44:18.813Z,85.90
2019-04-27T23:46:46.826Z,86.40
2019-04-27T23:49:14.797Z,85.10
2019-04-27T23:51:57.044Z,85.90
2019-04-27T23:54:25.073Z,85.20
2019-04-27T23:56:53.120Z,85.90
2019-04-27T23:59:25.130Z,85.10
